LRTCLRCK

Guest
Details From LRTC - CATALOI
To LRCK - CONSTANTA - MIHAIL KOGALNICEANU
Flight Number -
Tags generated
Created
Modified
Stats Distance 43 nm / 80 km
Max Altitude 2,400 ft / 732 m
Waypoints 3
Social Downloads 0
Likes 0
Share VATSIM

Download

Looking for another format? Having issues loading an existing format? Contact us
Advertisement - Login to hide

Notes

Basic altitude profile: - Ascent Rate: 2500ft/min - Ascent Speed: 250kts - Cruise Altitude: 35000ft - Cruise Speed: 420kts - Descent Rate: 1500ft/min - Descent Speed: 250kts

Route

LRTC BARUK LRCK

ID Type Via Altitude Latitude Longitude Leg Dist Tot Dist Heading (true) Name
O LRTC APT - 0 ft / 0 m 45.06249˚ 28.71431˚ - 0 nm - CATALOI
BARUK FIX - 2,400 ft / 732 m 44.54139˚ 28.56964˚ 31 nm 31 nm 191° / 191° -
O LRCK APT - 0 ft / 0 m 44.36211˚ 28.48845˚ 11 nm 43 nm 198° / 198° CONSTANTA - MIHAIL KOGALNICEANU

Altitude Profile

Advertisement - Login to hide

LRTC

Details ICAO LRTC (TCE)
Name CATALOI
Region Romania
Timezone Europe/Bucharest (UTC+2.0)
Stats Elevation 200 ft / 61 m (AMSL)
Location 45.062486° 28.714312°
Runways 1
Magnetic Variation 6.089° E

METAR

LRTC 161700Z 24007KT CAVOK 13/08 Q1005

Decode

TAF

Not found

Departure Runways

ID Width Length Bearing (true) Bearing (mag) Surface Threshold Offset Overrun Length
16 98 ft / 30 m 6,522 ft / 1,988 m 167.36° 161.27° Concrete 0 ft / 0 m 0 ft / 0 m
34 98 ft / 30 m 6,522 ft / 1,988 m 347.36° 341.27° Concrete 0 ft / 0 m 0 ft / 0 m

LRCK

Details ICAO LRCK (CND)
Name CONSTANTA - MIHAIL KOGALNICEANU
Region Romania
Timezone Europe/Bucharest (UTC+2.0)
Stats Elevation 353 ft / 108 m (AMSL)
Location 44.362114° 28.488454°
Runways 1
Magnetic Variation 5.929° E

METAR

LRCK 161700Z 24014KT CAVOK 12/08 Q1006 NOSIG

Decode

TAF

TAF LRCK 161100Z 1612/1712 20012KT CAVOK TEMPO 1612/1614 20016G26KT BECMG 1615/1617 26010KT BECMG 1622/1624 32005KT 5000 -RA BR BKN015 OVC045 TEMPO 1700/1705 3000 RA BR BKN010 OVC035 BECMG 1705/1707 02012KT 9999 NSW BKN020 BKN040 TEMPO 1709/1712 5000 -RA BR BKN010 OVC030

Decode

Destination Runways

ID Width Length Bearing (true) Bearing (mag) Surface Threshold Offset Overrun Length
18 148 ft / 45 m 11,455 ft / 3,492 m 185.57° 179.64° Concrete 0 ft / 0 m 0 ft / 0 m
36 148 ft / 45 m 11,455 ft / 3,492 m 5.57° 359.64° Concrete 0 ft / 0 m 0 ft / 0 m

Approach Navaids

Runway Type Ident Frequency Range Bearing (true) Bearing (mag) Slope Elevation
18 Localiser ICT 109.50 MHz 18 nm / 33 km 185.57° 179.64° - 353 ft / 108 m (AMSL)
18 Glidescope ICT 109.50 MHz 10 nm / 19 km 185.57° 179.64° 3.50° 353 ft / 108 m (AMSL)
36 Localiser ICK 110.30 MHz 18 nm / 33 km 5.57° 359.64° - 315 ft / 96 m (AMSL)
36 Glidescope ICK 110.30 MHz 10 nm / 19 km 5.57° 359.64° 2.50° 315 ft / 96 m (AMSL)
36 DME ICK 110.30 MHz 18 nm / 33 km - - - 353 ft / 108 m (AMSL)